Sontag, MS (39665)

05:26 CDT le 28 juillet 2016 (GMT -0500)
Stronghope | | Change Station

Alt. 269 ft 31.72 °N, 90.24 °W | Updated 10 seconds ago

Clear
Ciel dégagé
72.4 ° F
Paraît 72.4 ° F
N
0.0
Vent Variable Vent de SO
Gusts 0.0 mph

Aujourd'hui
Haut(e) -- | Bas -- ° F
--% Risque de précip.
Hier
Haut(e) -- | Bas -- ° F
Precip. -- pouce
Pression 30.02 pouce
Visibilité 6.0 Miles terrestres
Nuages Ciel dégagé
Point de rosée 72 ° F
Humidité 99%
Précipitations 0.00 pouce
Profondeur de la couche neigeuse Non disponible.
6:14 AM 7:59 PM
Lune descendante, 33% visible
METAR KMCB 280953Z AUTO 16003KT 6SM BR CLR 22/21 A3003 RMK AO2 SLP165 T02170206
Pression 30.02 pouce
Visibilité 6.0 Miles terrestres
Nuages Ciel dégagé
Point de rosée 72 ° F
Humidité 99%
Précipitations 0.00 pouce
Profondeur de la couche neigeuse Non disponible.
6:14 AM 7:59 PM
Lune descendante, 33% visible
METAR KMCB 280953Z AUTO 16003KT 6SM BR CLR 22/21 A3003 RMK AO2 SLP165 T02170206

10-Day Weather Forecast

Almanac

Astronomie

Jul. 28, 2016 Lever Coucher
Temps réel
Crépuscule civil
Crépuscule nautique
Crépuscule astronomique
Lune
Durée de lumière visible
Longueur du jour
Tomorrow will be .
, % of the Moon is Illuminated

Extrêmes aujourd'hui

State Highs State Lows

Community

WunderPhotos

Upload Photos

1,928,081 Photos téléchargées !

WunderBlog® & News

Nearby

Qualité de l'air

  Qualité de l'air Indice de la qualité de l'air Polluant
Not available.

Épaisseur de neige

Station Depth Altitude

Activité sismique

Ville Distance Mag. Time & Date
Minimum magnitude displayed is 2.5.

Températures des eaux côtières

Lieu Température

Stations

Stations météo à proximité

Emplacement de la station Température Refroidissement éolien Point de rosée Humidité Vent Precip. Alt. Mise à jour Type
                   

Watches & Warnings

There are currently no watches in effect.